createdAt,value
2019-03-31T00:01:34.284Z,67.20
2019-03-31T00:04:00.280Z,72.20
2019-03-31T00:06:26.593Z,64.70
2019-03-31T00:08:52.560Z,56.80
2019-03-31T00:11:18.544Z,53.90
2019-03-31T00:13:44.771Z,56.10
2019-03-31T00:16:10.744Z,48.80
2019-03-31T00:18:36.812Z,47.97
2019-03-31T00:21:02.904Z,48.90
2019-03-31T00:23:29.423Z,51.17
2019-03-31T00:25:55.471Z,50.73
2019-03-31T00:28:21.467Z,55.90
2019-03-31T00:30:47.617Z,47.93
2019-03-31T00:33:13.953Z,47.90
2019-03-31T00:35:39.920Z,50.87
2019-03-31T00:38:05.912Z,50.80
2019-03-31T00:40:31.915Z,45.43
2019-03-31T00:42:57.895Z,44.63
2019-03-31T00:45:24.163Z,43.87
2019-03-31T00:47:50.430Z,42.80
2019-03-31T00:50:16.408Z,52.30
2019-03-31T00:52:42.429Z,38.67
2019-03-31T00:55:08.420Z,36.33
2019-03-31T00:57:34.556Z,35.50
2019-03-31T01:00:00.733Z,48.30
2019-03-31T01:02:28.725Z,34.80
2019-03-31T01:04:54.750Z,30.10
2019-03-31T01:07:24.280Z,26.10
2019-03-31T01:09:54.064Z,33.33
2019-03-31T01:12:22.475Z,30.03
2019-03-31T01:14:48.583Z,28.53
2019-03-31T01:17:18.723Z,33.57
2019-03-31T01:19:44.144Z,29.63
2019-03-31T01:22:10.276Z,20.97
2019-03-31T01:24:36.372Z,30.07
2019-03-31T01:27:04.072Z,26.33
2019-03-31T01:29:30.305Z,24.23
2019-03-31T01:31:56.683Z,28.40
2019-03-31T01:34:23.182Z,26.27
2019-03-31T01:36:49.186Z,24.17
2019-03-31T01:39:15.461Z,22.57
2019-03-31T01:41:41.441Z,24.73
2019-03-31T01:44:07.486Z,26.00
2019-03-31T01:46:33.460Z,21.80
2019-03-31T01:48:59.495Z,22.23
2019-03-31T01:51:25.725Z,21.53
2019-03-31T01:53:51.708Z,26.70
2019-03-31T01:56:17.919Z,21.40
2019-03-31T01:58:43.936Z,23.10
2019-03-31T02:01:14.664Z,21.70
2019-03-31T02:03:40.743Z,34.47
2019-03-31T02:06:06.788Z,23.97
2019-03-31T02:08:32.772Z,23.50
2019-03-31T02:14:21.817Z,26.47
2019-03-31T02:16:47.969Z,20.00
2019-03-31T02:19:14.007Z,25.67
2019-03-31T02:21:40.000Z,22.83
2019-03-31T02:24:06.263Z,19.63
2019-03-31T02:26:32.237Z,16.50
2019-03-31T02:28:58.225Z,18.33
2019-03-31T02:31:24.241Z,17.23
2019-03-31T02:33:50.225Z,20.50
2019-03-31T02:36:16.251Z,20.83
2019-03-31T02:38:42.336Z,17.50
2019-03-31T02:41:08.370Z,14.13
2019-03-31T02:43:34.350Z,15.17
2019-03-31T02:46:00.364Z,18.90
2019-03-31T02:48:26.399Z,14.97
2019-03-31T02:50:52.400Z,16.97
2019-03-31T02:53:19.504Z,15.23
2019-03-31T02:55:45.802Z,17.13
2019-03-31T02:58:13.582Z,17.60
2019-03-31T03:00:40.401Z,20.60
2019-03-31T03:03:06.485Z,20.13
2019-03-31T03:05:32.686Z,13.23
2019-03-31T03:07:59.879Z,16.23
2019-03-31T03:10:26.618Z,19.43
2019-03-31T03:12:55.636Z,25.23
2019-03-31T03:15:26.225Z,24.07
2019-03-31T03:17:52.258Z,21.03
2019-03-31T03:20:18.261Z,16.67
2019-03-31T03:22:44.392Z,17.30
2019-03-31T03:25:10.501Z,15.43
2019-03-31T03:27:36.590Z,21.60
2019-03-31T03:30:03.054Z,16.97
2019-03-31T03:32:29.136Z,17.13
2019-03-31T03:34:55.625Z,22.17
2019-03-31T03:37:21.726Z,20.57
2019-03-31T03:39:47.713Z,19.60
2019-03-31T03:42:13.828Z,25.13
2019-03-31T03:44:39.926Z,20.33
2019-03-31T03:47:08.162Z,27.80
2019-03-31T03:49:36.165Z,22.43
2019-03-31T03:52:02.390Z,18.60
2019-03-31T03:54:28.531Z,19.53
2019-03-31T03:56:54.885Z,23.60
2019-03-31T03:59:21.433Z,20.87
2019-03-31T04:01:47.580Z,20.87
2019-03-31T04:04:13.771Z,20.00
2019-03-31T04:06:39.931Z,19.60
2019-03-31T04:09:06.131Z,14.50
2019-03-31T04:11:32.353Z,21.43
2019-03-31T04:13:58.360Z,14.10
2019-03-31T04:16:24.844Z,16.53
2019-03-31T04:18:51.073Z,14.10
2019-03-31T04:21:17.074Z,14.37
2019-03-31T04:23:43.172Z,12.30
2019-03-31T04:26:09.269Z,14.60
2019-03-31T04:28:35.288Z,13.83
2019-03-31T04:31:01.294Z,14.50
2019-03-31T04:33:27.269Z,12.03
2019-03-31T04:35:53.393Z,9.47
2019-03-31T04:38:19.389Z,10.27
2019-03-31T04:40:45.422Z,8.40
2019-03-31T04:43:11.497Z,10.70
2019-03-31T04:45:37.522Z,6.80
2019-03-31T04:48:03.523Z,7.07
2019-03-31T04:50:29.764Z,5.60
2019-03-31T04:52:55.746Z,5.90
2019-03-31T04:55:21.724Z,5.53
2019-03-31T04:57:47.784Z,5.57
2019-03-31T05:00:13.859Z,5.23
2019-03-31T05:02:39.895Z,10.03
2019-03-31T05:05:05.967Z,4.57
2019-03-31T05:07:31.948Z,6.07
2019-03-31T05:09:57.985Z,3.80
2019-03-31T05:12:23.962Z,4.43
2019-03-31T05:14:49.987Z,8.20
2019-03-31T05:17:15.975Z,8.23
2019-03-31T05:19:41.976Z,7.73
2019-03-31T05:22:07.955Z,4.80
2019-03-31T05:24:33.996Z,7.07
2019-03-31T05:26:59.992Z,4.57
2019-03-31T05:29:25.970Z,4.70
2019-03-31T05:31:52.021Z,9.13
2019-03-31T05:34:19.262Z,6.93
2019-03-31T05:36:45.591Z,4.70
2019-03-31T05:39:11.639Z,9.47
2019-03-31T05:41:37.637Z,6.30
2019-03-31T05:44:05.996Z,6.73
2019-03-31T05:46:31.733Z,9.47
2019-03-31T05:48:57.710Z,7.07
2019-03-31T05:51:23.692Z,7.37
2019-03-31T05:53:49.744Z,6.37
2019-03-31T05:56:15.752Z,8.90
2019-03-31T05:58:41.759Z,9.70
2019-03-31T06:01:07.742Z,11.40
2019-03-31T06:03:33.749Z,11.00
2019-03-31T06:05:59.733Z,12.00
2019-03-31T06:08:25.706Z,12.17
2019-03-31T06:10:51.727Z,18.10
2019-03-31T06:13:17.720Z,11.30
2019-03-31T06:15:43.833Z,15.50
2019-03-31T06:18:09.810Z,11.03
2019-03-31T06:20:35.833Z,13.43
2019-03-31T06:23:01.813Z,10.90
2019-03-31T06:25:27.832Z,9.27
2019-03-31T06:27:53.857Z,15.30
2019-03-31T06:30:20.015Z,10.13
2019-03-31T06:32:45.996Z,13.80
2019-03-31T06:35:12.026Z,8.83
2019-03-31T06:37:38.048Z,6.93
2019-03-31T06:40:04.259Z,11.47
2019-03-31T06:42:30.264Z,13.47
2019-03-31T06:44:56.293Z,9.77
2019-03-31T06:47:22.280Z,10.47
2019-03-31T06:49:48.265Z,10.53
2019-03-31T06:52:14.312Z,15.07
2019-03-31T06:54:40.569Z,11.90
2019-03-31T06:57:06.543Z,14.90
2019-03-31T06:59:32.524Z,19.87
2019-03-31T07:01:58.552Z,14.40
2019-03-31T07:04:24.539Z,17.07
2019-03-31T07:06:50.561Z,14.50
2019-03-31T07:09:16.559Z,13.80
2019-03-31T07:11:42.544Z,10.70
2019-03-31T07:14:08.595Z,20.43
2019-03-31T07:16:34.620Z,12.63
2019-03-31T07:19:00.614Z,11.27
2019-03-31T07:21:26.638Z,16.20
2019-03-31T07:23:52.608Z,16.97
2019-03-31T07:26:18.852Z,14.57
2019-03-31T07:28:44.843Z,11.87
2019-03-31T07:31:10.866Z,18.10
2019-03-31T07:33:37.395Z,13.73
2019-03-31T07:36:03.466Z,14.47
2019-03-31T07:38:38.767Z,15.20
2019-03-31T07:41:11.677Z,12.40
2019-03-31T07:43:25.612Z,13.83
2019-03-31T07:45:51.606Z,10.07
2019-03-31T07:48:17.738Z,14.20
2019-03-31T07:50:43.913Z,13.23
2019-03-31T07:53:09.995Z,18.37
2019-03-31T07:55:36.037Z,10.93
2019-03-31T07:58:02.235Z,8.53
2019-03-31T08:00:28.403Z,10.03
2019-03-31T08:02:54.490Z,18.47
2019-03-31T08:05:32.507Z,7.83
2019-03-31T08:07:48.496Z,12.90
2019-03-31T08:10:15.032Z,11.23
2019-03-31T08:12:41.305Z,10.13
2019-03-31T08:15:08.120Z,16.23
2019-03-31T08:17:34.417Z,11.57
2019-03-31T08:20:01.493Z,10.93
2019-03-31T08:22:27.487Z,11.70
2019-03-31T08:24:53.608Z,12.10
2019-03-31T08:27:19.868Z,14.43
2019-03-31T08:29:51.841Z,11.23
2019-03-31T08:32:14.579Z,19.07
2019-03-31T08:34:40.577Z,11.63
2019-03-31T08:37:08.269Z,10.47
2019-03-31T08:39:34.640Z,10.50
2019-03-31T08:42:00.739Z,6.97
2019-03-31T08:44:26.867Z,8.80
2019-03-31T08:46:52.897Z,8.13
2019-03-31T08:49:18.918Z,10.43
2019-03-31T08:51:44.932Z,7.50
2019-03-31T08:54:10.991Z,10.67
2019-03-31T08:56:37.093Z,8.53
2019-03-31T08:59:03.601Z,12.17
2019-03-31T09:01:29.609Z,6.73
2019-03-31T09:03:55.839Z,13.07
2019-03-31T09:06:21.850Z,13.13
2019-03-31T09:08:47.832Z,14.27
2019-03-31T09:11:13.874Z,11.60
2019-03-31T09:13:40.221Z,15.13
2019-03-31T09:16:06.261Z,6.87
2019-03-31T09:18:32.781Z,6.30
2019-03-31T09:20:58.855Z,6.07
2019-03-31T09:23:24.879Z,10.90
2019-03-31T09:25:50.852Z,13.50
2019-03-31T09:28:16.913Z,11.20
2019-03-31T09:30:42.896Z,5.90
2019-03-31T09:33:09.045Z,13.10
2019-03-31T09:35:35.057Z,10.20
2019-03-31T09:38:01.442Z,5.80
2019-03-31T09:40:27.820Z,10.00
2019-03-31T09:42:53.941Z,5.93
2019-03-31T09:45:20.164Z,10.30
2019-03-31T09:47:46.185Z,8.60
2019-03-31T09:50:16.833Z,10.17
2019-03-31T09:52:41.276Z,12.10
2019-03-31T09:55:08.132Z,14.03
2019-03-31T09:57:34.171Z,10.63
2019-03-31T10:00:00.403Z,12.07
2019-03-31T10:02:28.939Z,8.83
2019-03-31T10:04:54.968Z,12.13
2019-03-31T10:07:23.731Z,10.40
2019-03-31T10:09:49.138Z,7.73
2019-03-31T10:12:15.245Z,15.67
2019-03-31T10:14:41.228Z,7.53
2019-03-31T10:17:07.222Z,9.10
2019-03-31T10:19:33.442Z,12.33
2019-03-31T10:21:59.428Z,6.60
2019-03-31T10:24:25.419Z,9.57
2019-03-31T10:26:51.471Z,9.80
2019-03-31T10:29:17.456Z,7.23
2019-03-31T10:31:43.518Z,9.23
2019-03-31T10:34:09.499Z,10.37
2019-03-31T10:36:44.262Z,6.17
2019-03-31T10:39:05.333Z,10.73
2019-03-31T10:41:31.356Z,6.37
2019-03-31T10:43:57.334Z,9.53
2019-03-31T10:46:23.348Z,8.57
2019-03-31T10:48:49.498Z,6.73
2019-03-31T10:51:15.646Z,9.60
2019-03-31T10:53:41.741Z,9.30
2019-03-31T10:56:07.777Z,10.27
2019-03-31T10:58:33.893Z,8.27
2019-03-31T11:00:59.931Z,7.10
2019-03-31T11:03:25.973Z,7.37
2019-03-31T11:05:51.992Z,7.47
2019-03-31T11:08:18.024Z,12.60
2019-03-31T11:10:44.041Z,5.13
2019-03-31T11:13:10.033Z,7.10
2019-03-31T11:15:36.066Z,9.50
2019-03-31T11:18:02.059Z,9.37
2019-03-31T11:20:28.111Z,9.50
2019-03-31T11:22:58.629Z,8.20
2019-03-31T11:25:28.924Z,9.03
2019-03-31T11:27:52.791Z,4.67
2019-03-31T11:30:19.019Z,8.23
2019-03-31T11:32:45.032Z,9.37
2019-03-31T11:35:11.218Z,9.07
2019-03-31T11:37:37.361Z,7.73
2019-03-31T11:40:05.744Z,7.00
2019-03-31T11:42:31.718Z,5.87
2019-03-31T11:44:57.740Z,5.83
2019-03-31T11:47:23.744Z,9.53
2019-03-31T11:49:49.888Z,6.60
2019-03-31T11:52:16.043Z,6.53
2019-03-31T11:54:42.108Z,7.07
2019-03-31T11:57:08.536Z,14.20
2019-03-31T11:59:34.512Z,6.67
2019-03-31T12:02:00.732Z,11.23
2019-03-31T12:04:26.738Z,6.00
2019-03-31T12:06:52.966Z,7.23
2019-03-31T12:09:18.969Z,8.10
2019-03-31T12:11:45.817Z,10.20
2019-03-31T12:14:12.043Z,7.67
2019-03-31T12:16:38.056Z,6.83
2019-03-31T12:19:04.126Z,8.17
2019-03-31T12:21:30.168Z,8.80
2019-03-31T12:23:56.240Z,9.33
2019-03-31T12:26:22.258Z,8.83
2019-03-31T12:28:48.307Z,9.30
2019-03-31T12:31:14.988Z,8.00
2019-03-31T12:33:41.121Z,8.23
2019-03-31T12:36:07.092Z,5.77
2019-03-31T12:38:33.328Z,5.87
2019-03-31T12:40:59.372Z,7.90
2019-03-31T12:43:25.363Z,5.40
2019-03-31T12:45:51.380Z,7.07
2019-03-31T12:48:17.382Z,8.80
2019-03-31T12:50:43.377Z,4.93
2019-03-31T12:53:09.442Z,4.93
2019-03-31T12:55:35.420Z,7.00
2019-03-31T12:58:01.447Z,8.20
2019-03-31T13:00:27.553Z,6.20
2019-03-31T13:02:53.623Z,9.47
2019-03-31T13:05:19.610Z,8.90
2019-03-31T13:07:56.294Z,8.00
2019-03-31T13:10:13.957Z,7.93
2019-03-31T13:12:40.047Z,6.50
2019-03-31T13:15:06.581Z,5.03
2019-03-31T13:17:32.608Z,6.53
2019-03-31T13:19:58.597Z,7.03
2019-03-31T13:22:24.649Z,6.33
2019-03-31T13:24:50.632Z,7.30
2019-03-31T13:27:16.703Z,9.07
2019-03-31T13:29:42.733Z,9.93
2019-03-31T13:32:08.705Z,10.53
2019-03-31T13:34:34.928Z,5.53
2019-03-31T13:37:00.913Z,8.70
2019-03-31T13:39:27.008Z,6.03
2019-03-31T13:41:53.231Z,5.17
2019-03-31T13:44:19.211Z,9.53
2019-03-31T13:46:45.195Z,7.50
2019-03-31T13:49:11.204Z,4.90
2019-03-31T13:51:37.191Z,4.83
2019-03-31T13:54:03.250Z,4.80
2019-03-31T13:56:29.696Z,6.27
2019-03-31T13:58:56.105Z,4.47
2019-03-31T14:01:22.213Z,6.47
2019-03-31T14:03:48.297Z,8.30
2019-03-31T14:06:14.551Z,7.20
2019-03-31T14:08:40.565Z,5.07
2019-03-31T14:11:06.604Z,8.20
2019-03-31T14:13:32.656Z,6.07
2019-03-31T14:15:58.684Z,9.90
2019-03-31T14:18:24.752Z,4.50
2019-03-31T14:20:50.732Z,5.13
2019-03-31T14:23:16.711Z,4.13
2019-03-31T14:25:42.860Z,6.53
2019-03-31T14:28:08.880Z,4.60
2019-03-31T14:30:35.010Z,4.43
2019-03-31T14:33:01.105Z,5.27
2019-03-31T14:35:27.172Z,6.27
2019-03-31T14:37:53.283Z,4.17
2019-03-31T14:40:19.297Z,7.40
2019-03-31T14:42:45.315Z,5.60
2019-03-31T14:45:15.158Z,4.63
2019-03-31T14:47:41.169Z,8.03
2019-03-31T14:50:10.964Z,6.47
2019-03-31T14:52:36.992Z,7.40
2019-03-31T14:55:04.181Z,5.27
2019-03-31T14:57:30.172Z,5.97
2019-03-31T14:59:56.185Z,9.87
2019-03-31T15:02:24.257Z,9.20
2019-03-31T15:04:50.397Z,6.43
2019-03-31T15:07:16.516Z,8.60
2019-03-31T15:09:42.511Z,4.43
2019-03-31T15:12:08.544Z,7.90
2019-03-31T15:14:34.705Z,6.13
2019-03-31T15:17:00.753Z,4.03
2019-03-31T15:19:26.748Z,7.00
2019-03-31T15:21:52.821Z,6.20
2019-03-31T15:24:18.909Z,6.97
2019-03-31T15:26:45.026Z,6.97
2019-03-31T15:29:11.025Z,9.77
2019-03-31T15:31:37.053Z,6.83
2019-03-31T15:34:03.193Z,7.27
2019-03-31T15:36:29.409Z,7.00
2019-03-31T15:39:08.109Z,8.93
2019-03-31T15:41:23.382Z,6.40
2019-03-31T15:43:49.404Z,5.97
2019-03-31T15:46:15.692Z,6.17
2019-03-31T15:48:41.794Z,7.10
2019-03-31T15:51:08.113Z,5.20
2019-03-31T15:53:34.217Z,9.77
2019-03-31T15:56:00.224Z,6.57
2019-03-31T15:58:26.307Z,7.60
2019-03-31T16:00:52.304Z,4.43
2019-03-31T16:03:18.284Z,5.30
2019-03-31T16:05:44.335Z,8.13
2019-03-31T16:08:10.381Z,7.90
2019-03-31T16:10:36.637Z,7.97
2019-03-31T16:13:02.921Z,4.17
2019-03-31T16:15:28.901Z,7.30
2019-03-31T16:17:54.948Z,4.90
2019-03-31T16:20:21.053Z,3.77
2019-03-31T16:22:47.234Z,7.90
2019-03-31T16:25:17.749Z,5.23
2019-03-31T16:27:43.746Z,4.70
2019-03-31T16:30:09.968Z,4.63
2019-03-31T16:32:36.042Z,5.37
2019-03-31T16:35:03.683Z,3.70
2019-03-31T16:37:29.725Z,9.30
2019-03-31T16:39:55.719Z,3.53
2019-03-31T16:42:21.693Z,4.87
2019-03-31T16:44:57.984Z,7.87
2019-03-31T16:47:15.720Z,6.80
2019-03-31T16:49:42.079Z,5.73
2019-03-31T16:52:08.152Z,4.50
2019-03-31T16:54:34.136Z,5.00
2019-03-31T16:57:00.144Z,5.60
2019-03-31T16:59:26.204Z,6.17
2019-03-31T17:01:52.518Z,7.43
2019-03-31T17:04:18.538Z,5.03
2019-03-31T17:06:44.642Z,7.23
2019-03-31T17:09:10.620Z,6.17
2019-03-31T17:11:36.668Z,5.50
2019-03-31T17:14:02.851Z,7.80
2019-03-31T17:16:28.855Z,7.70
2019-03-31T17:18:54.833Z,6.40
2019-03-31T17:21:20.824Z,5.43
2019-03-31T17:23:47.054Z,4.63
2019-03-31T17:26:13.048Z,4.77
2019-03-31T17:28:39.031Z,7.63
2019-03-31T17:31:05.038Z,6.37
2019-03-31T17:33:31.076Z,5.60
2019-03-31T17:35:57.070Z,6.27
2019-03-31T17:38:23.086Z,4.97
2019-03-31T17:40:49.076Z,6.13
2019-03-31T17:43:15.069Z,4.77
2019-03-31T17:45:41.152Z,7.47
2019-03-31T17:48:07.621Z,7.50
2019-03-31T17:50:33.772Z,7.50
2019-03-31T17:52:59.771Z,6.47
2019-03-31T17:55:25.812Z,5.40
2019-03-31T17:57:51.816Z,7.30
2019-03-31T18:00:17.943Z,6.27
2019-03-31T18:02:43.937Z,8.40
2019-03-31T18:05:10.252Z,4.90
2019-03-31T18:07:36.563Z,5.03
2019-03-31T18:10:04.650Z,8.50
2019-03-31T18:12:30.744Z,8.60
2019-03-31T18:14:56.812Z,6.53
2019-03-31T18:17:22.880Z,8.20
2019-03-31T18:19:48.901Z,5.03
2019-03-31T18:22:16.766Z,6.20
2019-03-31T18:24:42.830Z,6.07
2019-03-31T18:27:08.840Z,7.43
2019-03-31T18:29:34.997Z,7.57
2019-03-31T18:32:00.978Z,5.53
2019-03-31T18:34:27.362Z,4.77
2019-03-31T18:36:53.388Z,4.73
2019-03-31T18:39:19.413Z,7.03
2019-03-31T18:41:45.532Z,6.73
2019-03-31T18:44:11.541Z,7.27
2019-03-31T18:46:37.651Z,9.03
2019-03-31T18:49:03.901Z,7.50
2019-03-31T18:51:29.930Z,8.57
2019-03-31T18:54:00.821Z,6.10
2019-03-31T18:56:40.782Z,7.13
2019-03-31T18:59:08.738Z,10.40
2019-03-31T19:01:36.713Z,10.50
2019-03-31T19:04:07.263Z,6.50
2019-03-31T19:06:43.934Z,7.97
2019-03-31T19:09:17.406Z,8.70
2019-03-31T19:11:47.872Z,6.73
2019-03-31T19:14:15.985Z,5.07
2019-03-31T19:16:44.100Z,7.23
2019-03-31T19:19:28.672Z,10.20
2019-03-31T19:22:05.403Z,7.80
2019-03-31T19:24:35.792Z,4.83
2019-03-31T19:27:20.253Z,8.30
2019-03-31T19:29:48.183Z,8.17
2019-03-31T19:32:32.330Z,5.60
2019-03-31T19:35:12.184Z,5.63
2019-03-31T19:37:58.059Z,4.73
2019-03-31T19:40:42.133Z,6.37
2019-03-31T19:43:15.916Z,10.03
2019-03-31T19:45:44.170Z,12.40
2019-03-31T19:48:14.865Z,7.13
2019-03-31T19:50:54.749Z,8.53
2019-03-31T19:53:28.493Z,8.80
2019-03-31T19:56:11.591Z,13.37
2019-03-31T19:58:54.690Z,6.83
2019-03-31T20:01:23.134Z,6.97
2019-03-31T20:04:02.961Z,7.90
2019-03-31T20:06:34.430Z,7.60
2019-03-31T20:09:02.618Z,7.50
2019-03-31T20:11:30.585Z,11.27
2019-03-31T20:14:04.468Z,7.30
2019-03-31T20:16:48.735Z,7.60
2019-03-31T20:19:16.771Z,7.87
2019-03-31T20:22:00.968Z,63.00
2019-03-31T20:24:40.806Z,65.73
2019-03-31T20:27:08.980Z,56.30
2019-03-31T20:29:36.940Z,87.63
2019-03-31T20:32:14.090Z,66.93
2019-03-31T20:34:42.025Z,53.83
2019-03-31T20:37:21.906Z,64.97
2019-03-31T20:39:56.431Z,57.87
2019-03-31T20:42:22.932Z,35.23
2019-03-31T20:44:48.957Z,42.10
2019-03-31T20:47:14.981Z,29.83
2019-03-31T20:49:41.101Z,36.37
2019-03-31T20:52:07.189Z,27.77
2019-03-31T20:54:33.328Z,17.57
2019-03-31T20:56:59.357Z,12.67
2019-03-31T20:59:25.395Z,19.93
2019-03-31T21:01:51.561Z,15.40
2019-03-31T21:04:17.563Z,8.80
2019-03-31T21:06:43.656Z,9.70
2019-03-31T21:09:09.731Z,9.87
2019-03-31T21:11:35.775Z,7.97
2019-03-31T21:14:01.898Z,7.37
2019-03-31T21:16:27.919Z,9.57
2019-03-31T21:18:54.045Z,12.93
2019-03-31T21:21:20.092Z,8.60
2019-03-31T21:23:46.094Z,11.53
2019-03-31T21:26:12.130Z,7.90
2019-03-31T21:28:38.106Z,6.50
2019-03-31T21:31:04.318Z,11.83
2019-03-31T21:33:30.433Z,8.57
2019-03-31T21:35:56.471Z,10.13
2019-03-31T21:38:22.577Z,5.73
2019-03-31T21:40:48.568Z,15.33
2019-03-31T21:43:14.591Z,10.63
2019-03-31T21:45:40.634Z,7.30
2019-03-31T21:48:06.697Z,9.60
2019-03-31T21:50:32.808Z,14.27
2019-03-31T21:52:58.918Z,11.03
2019-03-31T21:55:25.421Z,6.43
2019-03-31T21:57:51.453Z,9.73
2019-03-31T22:00:20.738Z,11.00
2019-03-31T22:02:46.798Z,9.53
2019-03-31T22:05:13.158Z,9.03
2019-03-31T22:07:39.200Z,7.17
2019-03-31T22:10:05.477Z,9.67
2019-03-31T22:12:31.505Z,16.00
2019-03-31T22:14:57.532Z,8.57
2019-03-31T22:17:23.551Z,8.47
2019-03-31T22:19:49.703Z,12.93
2019-03-31T22:22:15.717Z,7.67
2019-03-31T22:24:41.840Z,14.13
2019-03-31T22:27:07.835Z,15.03
2019-03-31T22:29:34.019Z,7.30
2019-03-31T22:32:00.072Z,9.17
2019-03-31T22:34:26.085Z,8.90
2019-03-31T22:36:52.116Z,13.83
2019-03-31T22:39:18.101Z,16.97
2019-03-31T22:41:44.140Z,9.90
2019-03-31T22:44:10.399Z,11.10
2019-03-31T22:46:36.732Z,12.70
2019-03-31T22:49:03.057Z,11.30
2019-03-31T22:51:29.068Z,13.13
2019-03-31T22:53:55.156Z,12.57
2019-03-31T22:56:21.282Z,12.90
2019-03-31T22:58:47.486Z,55.13
2019-03-31T23:01:13.638Z,52.03
2019-03-31T23:03:39.902Z,101.70
2019-03-31T23:06:05.896Z,23.03
2019-03-31T23:08:31.970Z,10.73
2019-03-31T23:10:58.118Z,11.53
2019-03-31T23:13:24.208Z,9.70
2019-03-31T23:15:50.348Z,8.20
2019-03-31T23:18:16.347Z,12.17
2019-03-31T23:20:42.774Z,8.57
2019-03-31T23:23:08.789Z,10.67
2019-03-31T23:25:34.826Z,9.33
2019-03-31T23:28:00.857Z,8.93
2019-03-31T23:30:26.861Z,7.50
2019-03-31T23:32:52.856Z,10.30
2019-03-31T23:35:18.883Z,13.53
2019-03-31T23:37:44.983Z,7.87
2019-03-31T23:40:10.972Z,10.90
2019-03-31T23:42:37.063Z,13.97
2019-03-31T23:45:04.525Z,8.57
2019-03-31T23:47:30.545Z,6.60
2019-03-31T23:49:56.573Z,10.37
2019-03-31T23:52:22.601Z,9.17
2019-03-31T23:54:48.596Z,9.83
2019-03-31T23:57:14.590Z,9.33
2019-03-31T23:59:40.616Z,10.73
